Airfield :
LOGIN :

Register | Disclaimer

   EN    FR    IT 

 










Legend :    VFR   Marginal VFR   IFR   Intensive IFR   Very Intensive IFR
Visi :
Ceiling :
>= 8 km
>= 3000ft
5 to 8 km
1000 to 3000 ft
1500m to 5 km
500 to 1000 ft
800 to 1500m
200 to 500 ft
< 800m
< 200 ft
Symbols :   Thunderstorms  Fog  Heavy snow  Heavy precipitations  Wind > 20 kt
SIGMETs :     Misc.  Thunderstorms  Icing  Turbulence  Mountain Waves  Volcanic Ashes







- Airport Elevation : 1989 ft
- IATA code : KLV


LKKV - Karlovy Vary

CURRENT METAR :
  • 180930Z 07009KT 020V100 CAVOK 02/M10 Q1026

EXPIRED METARs :
  • 180900Z 10005KT CAVOK 02/M11 Q1026
  • 180830Z 05006KT CAVOK 01/M11 Q1027
  • 180800Z VRB02KT CAVOK M00/M09 Q1027
  • 180730Z VRB02KT CAVOK M03/M10 Q1027
  • 180700Z VRB02KT CAVOK M04/M10 Q1027

TAF TAF LKKV
Valid from the 18 at 06:00 until the 19 at 12:00 UTC


180500Z 1806/1912 VRB02KT CAVOK
BECMG 1819/1821 9999 SCT015 BKN020
BECMG 1822/1900 6000 BKN009
TEMPO 1906/1912 3000 -SN BKN003
No reported NOTAMs for that airfield.



MET'MAP, your aeronautical weather chart ! - Copyright ORBIFLY December 2007 - Disclaimer

ORBIFLY MET'MAP TEAM :

Programming & Development : Alexandra Zaïnal
Concept & Development : Baudouin d'Aumeries
Co-Development & Prog : Marc-Olivier Méhu
Technical & hardware support : Manuel Goepfert

Contact : metmap@orbifly.com




SOURCES & CREDITS :

   NOAA